Search for airport 
image banner adimage banner adimage banner ad
image banner ad

7PA2 - State Park

Located in Wind Gap, United States

ICAO - 7PA2, IATA -

Data provided by Airmate  

General information

Coordinates: N40°48'14" W75°17'49"
Elevation is 620 feet MSL.
Magnetic variation is -12° East
View others Airports in Pennsylvania

Operational data

Special qualification required
Current time UTC:
Current local time:
Weather at : KABE - Lehigh Valley Intl ( 21 km )
METAR: KABE 152251Z 34008KT 10SM CLR 22/13 A2979 RMK AO2 SLP087 T02220128 $
TAF: KABE 151720Z 1518/1618 31011KT P6SM BKN050 FM152300 31004KT P6SM SCT050 FM161400 32009KT P6SM FEW050
View NOTAMs / SUP AIP / TFR affecting this airport [VIEW]
Communications frequencies: [VIEW]

Runways:

Airport contact information

Address: Wind Gap United States

Satellite view of 7PA2